Shepherd, Montana
Current Conditions -  °F | °C
As of 3:53 PM on Thursday 20 Nov 2014 (Local Time) from KBIL Reporting Station
Scattered Clouds Scattered Clouds  
Wind Chill: 30°   Ceiling: Unl
Heat Index: 40°   Visibility: 10mi
Dew Point: 21°   Wind: 21mph
Humidity: 47%   Direction: 230°SW
Pressure: 29.84"   Gusts: NA
Location:  45.94°N, 108.34°W
Report Text: KBIL 202253Z 23018KT 10SM SCT110 SCT230 04/M06 A2984 RMK AO2 SLP133 ACSL DSNT S-N T00441061
Loading
Personal Weather Stations






























Interactive Weather Map New forecast layout! Learn more

10-Day Weather Forecast

Advertisements
Track Severe Weather on mobile